Los Angeles, California
Traffic Map
Current Weather Conditions
Los Angeles, California
Clear
Clear
18°
Feels Like: 18°
Wind Chill: 18° Ceiling: Unl
Heat Index: 18° Visibility: 10mi
Dew Point: -7° Wind: 0mph
Humidity: 18% Direction: ° ()
Pressure: 30.18in Gusts: 0mph
Raw Report DataKCQT 181747Z AUTO 00000KT 10SM CLR 18/M07 A3018 RMK AO2 SLP220 T01831067 10183 20100 52018 $
Traffic Incident Summary
Active as of:
Severity:
Category:
InformationThere was an issue retrieving the traffic information for this location. Please try a different location or try again shortly.
Advertisements